Time;durP1;ratioP1;P1;durP2;ratioP2;P2;SDS_P1;SDS_P2;PMS_P1;PMS_P2;Temp;Humidity;BMP_temperature;BMP_pressure;BME280_temperature;BME280_humidity;BME280_pressure;Samples;Min_cycle;Max_cycle;Signal;HPM_P1;HPM_P2
2024/02/24 00:00:39;;;;;;;;;;;;;;;12.63;79.99;97421.86;68438;1279;1015796;-69
2024/02/24 00:04:01;;;;;;;;;;;;;;;12.72;79.35;97421.71;68438;1279;1016332;-69
2024/02/24 00:07:04;;;;;;;;;;;;;;;12.64;79.82;97422.67;68430;1279;1015948;-69
2024/02/24 00:10:06;;;;;;;;;;;;;;;12.64;79.73;97420.02;68432;1279;1016244;-69
2024/02/24 00:13:10;;;;;;;;;;;;;;;12.73;79.25;97417.59;68441;1279;1015443;-70
2024/02/24 00:16:12;;;;;;;;;;;;;;;12.75;79.14;97421.08;68438;1279;1015303;-69
2024/02/24 00:19:15;;;;;;;;;;;;;;;12.72;79.08;97420.15;68437;1279;1015739;-68
2024/02/24 00:22:17;;;;;;;;;;;;;;;12.69;79.35;97411.36;68436;1279;1015840;-68
2024/02/24 00:25:20;;;;;;;;;;;;;;;12.75;79.42;97416.72;68444;1279;1015740;-68
2024/02/24 00:28:22;;;;;;;;;;;;;;;12.84;78.56;97415.23;68443;1280;1015785;-69
2024/02/24 00:31:25;;;;;;;;;;;;;;;12.81;78.35;97400.90;68430;1279;1015745;-69
2024/02/24 00:34:27;;;;;;;;;;;;;;;12.84;78.21;97402.77;68444;1279;1015775;-69
2024/02/24 00:37:30;;;;;;;;;;;;;;;12.76;78.79;97396.51;68425;1279;1016164;-69
2024/02/24 00:40:33;;;;;;;;;;;;;;;12.77;78.74;97395.71;68350;1280;1015214;-69
2024/02/24 00:43:35;;;;;;;;;;;;;;;12.80;78.98;97397.29;68333;1281;1015544;-69
2024/02/24 00:46:38;;;;;;;;;;;;;;;12.83;78.71;97387.95;68342;1281;1016217;-69
2024/02/24 00:49:40;;;;;;;;;;;;;;;12.74;79.45;97384.17;68329;1281;1015950;-69
2024/02/24 00:52:43;;;;;;;;;;;;;;;12.84;78.53;97373.94;68342;1281;1015830;-69
2024/02/24 00:55:46;;;;;;;;;;;;;;;12.79;79.02;97373.17;68334;1281;1015244;-68
2024/02/24 00:58:49;;;;;;;;;;;;;;;12.80;78.95;97365.07;68348;1281;1015952;-69
2024/02/24 01:01:52;;;;;;;;;;;;;;;12.76;79.34;97363.46;68341;1281;1015597;-69
2024/02/24 01:04:54;;;;;;;;;;;;;;;12.71;79.42;97358.17;68323;1281;1015997;-69
2024/02/24 01:07:57;;;;;;;;;;;;;;;12.76;79.32;97351.93;68341;1281;1015653;-69
2024/02/24 01:10:59;;;;;;;;;;;;;;;12.76;79.10;97348.20;68338;1281;1016140;-69
2024/02/24 01:14:02;;;;;;;;;;;;;;;12.67;79.74;97348.01;68346;1281;1016290;-69
2024/02/24 01:17:04;;;;;;;;;;;;;;;12.69;79.73;97351.91;68339;1281;1016069;-70
2024/02/24 01:20:07;;;;;;;;;;;;;;;12.66;80.00;97351.74;68344;1281;1015762;-69
2024/02/24 01:23:10;;;;;;;;;;;;;;;12.96;77.98;97348.34;68339;1281;1015107;-69
2024/02/24 01:26:12;;;;;;;;;;;;;;;12.83;78.76;97339.20;68328;1281;1015443;-69
2024/02/24 01:29:15;;;;;;;;;;;;;;;12.69;79.65;97346.77;68346;1281;1015208;-69
2024/02/24 01:32:19;;;;;;;;;;;;;;;12.82;78.78;97340.86;68336;1280;1015435;-69
2024/02/24 01:35:21;;;;;;;;;;;;;;;12.81;78.91;97336.73;68352;1281;1015608;-69
2024/02/24 01:38:24;;;;;;;;;;;;;;;12.70;79.42;97332.84;68364;1279;1015970;-69
2024/02/24 01:41:26;;;;;;;;;;;;;;;12.80;78.95;97332.73;68449;1279;1015461;-69
2024/02/24 01:44:29;;;;;;;;;;;;;;;12.87;78.40;97326.88;68439;1279;1015981;-69
2024/02/24 01:47:32;;;;;;;;;;;;;;;12.83;78.78;97326.16;68432;1279;1015481;-69
2024/02/24 01:50:38;;;;;;;;;;;;;;;12.88;78.65;97319.94;68434;1279;1015556;-69
2024/02/24 01:53:41;;;;;;;;;;;;;;;12.90;78.92;97313.29;68437;1279;1016459;-69
2024/02/24 01:56:43;;;;;;;;;;;;;;;12.83;78.81;97313.86;68424;1279;1015950;-69
2024/02/24 01:59:46;;;;;;;;;;;;;;;12.89;78.59;97314.00;68435;1279;1015294;-69
2024/02/24 02:02:49;;;;;;;;;;;;;;;12.87;79.20;97304.56;68431;1279;1016023;-69
2024/02/24 02:05:51;;;;;;;;;;;;;;;12.71;80.17;97296.51;68426;1279;1016212;-69
2024/02/24 02:08:54;;;;;;;;;;;;;;;12.62;80.77;97300.80;68429;1279;1015494;-68
2024/02/24 02:11:56;;;;;;;;;;;;;;;12.56;81.15;97292.98;68418;1279;1016145;-69
2024/02/24 02:14:59;;;;;;;;;;;;;;;12.57;80.91;97289.39;68439;1279;1015184;-69
2024/02/24 02:18:02;;;;;;;;;;;;;;;12.62;80.94;97295.04;68434;1279;1015971;-69
2024/02/24 02:21:04;;;;;;;;;;;;;;;12.64;80.70;97302.20;68430;1279;1015689;-69
2024/02/24 02:24:07;;;;;;;;;;;;;;;12.68;80.77;97311.10;68413;1279;1015304;-69
2024/02/24 02:27:10;;;;;;;;;;;;;;;12.66;80.88;97307.92;68434;1279;1015787;-69
2024/02/24 02:30:12;;;;;;;;;;;;;;;12.61;81.04;97308.20;68414;1279;1015792;-69
2024/02/24 02:33:15;;;;;;;;;;;;;;;12.57;81.69;97304.58;68430;1279;1015680;-69
2024/02/24 02:36:18;;;;;;;;;;;;;;;12.59;81.44;97309.70;68431;1279;1015858;-69
2024/02/24 02:39:20;;;;;;;;;;;;;;;12.67;81.04;97307.89;68364;1280;1015709;-69
2024/02/24 02:42:23;;;;;;;;;;;;;;;12.66;81.33;97303.45;68342;1281;1015619;-68
2024/02/24 02:45:25;;;;;;;;;;;;;;;12.66;81.16;97305.80;68346;1281;1015695;-69
2024/02/24 02:48:28;;;;;;;;;;;;;;;12.66;81.08;97302.02;68354;1281;1015561;-69
2024/02/24 02:51:30;;;;;;;;;;;;;;;12.65;81.31;97309.06;68337;1281;1014612;-69
2024/02/24 02:54:33;;;;;;;;;;;;;;;12.64;81.27;97312.50;68324;1281;1016062;-69
2024/02/24 02:57:35;;;;;;;;;;;;;;;12.59;81.45;97319.50;68324;1281;1016159;-69
2024/02/24 03:00:38;;;;;;;;;;;;;;;12.62;81.86;97318.36;68340;1281;1016174;-69
2024/02/24 03:03:41;;;;;;;;;;;;;;;12.62;82.18;97317.98;68335;1281;1015259;-69
2024/02/24 03:06:43;;;;;;;;;;;;;;;12.68;81.91;97312.33;68341;1281;1015322;-69
2024/02/24 03:09:47;;;;;;;;;;;;;;;12.67;82.06;97314.87;68352;1281;1016141;-69
2024/02/24 03:12:49;;;;;;;;;;;;;;;12.64;82.44;97325.16;68344;1281;1015465;-69
2024/02/24 03:15:52;;;;;;;;;;;;;;;12.74;81.72;97311.41;68337;1281;1015983;-68
2024/02/24 03:18:54;;;;;;;;;;;;;;;12.72;81.42;97303.91;68348;1281;1015819;-69
2024/02/24 03:21:57;;;;;;;;;;;;;;;12.66;81.90;97308.70;68330;1281;1015766;-69
2024/02/24 03:25:00;;;;;;;;;;;;;;;12.64;82.04;97310.57;68343;1281;1015619;-69
2024/02/24 03:28:02;;;;;;;;;;;;;;;12.62;82.32;97311.65;68341;1281;1015874;-69
2024/02/24 03:31:05;;;;;;;;;;;;;;;12.54;82.69;97317.27;68337;1281;1015764;-69
2024/02/24 03:34:07;;;;;;;;;;;;;;;12.63;82.30;97317.85;68340;1281;1016050;-69
2024/02/24 03:37:10;;;;;;;;;;;;;;;12.68;81.89;97309.73;68336;1281;1016160;-69
2024/02/24 03:40:12;;;;;;;;;;;;;;;12.68;82.05;97313.60;68411;1280;1015838;-69
2024/02/24 03:43:16;;;;;;;;;;;;;;;12.79;81.43;97316.05;68426;1280;1015909;-69
2024/02/24 03:46:18;;;;;;;;;;;;;;;12.84;81.12;97318.34;68419;1280;1016032;-69
2024/02/24 03:49:21;;;;;;;;;;;;;;;12.76;81.33;97316.50;68414;1279;1015750;-68
2024/02/24 03:52:24;;;;;;;;;;;;;;;12.73;81.39;97311.20;68430;1280;1016054;-69
2024/02/24 03:55:26;;;;;;;;;;;;;;;12.72;81.37;97304.75;68417;1280;1016193;-64
2024/02/24 03:58:30;;;;;;;;;;;;;;;12.71;81.45;97301.57;68412;1280;1015949;-69
2024/02/24 04:01:32;;;;;;;;;;;;;;;12.77;81.13;97300.14;68412;1279;1015371;-69
2024/02/24 04:04:35;;;;;;;;;;;;;;;12.81;80.76;97299.36;68418;1279;1015984;-69
2024/02/24 04:07:37;;;;;;;;;;;;;;;12.77;80.77;97297.98;68417;1279;1015768;-68
2024/02/24 04:10:40;;;;;;;;;;;;;;;12.78;80.70;97288.90;68412;1279;1016723;-69
2024/02/24 04:13:43;;;;;;;;;;;;;;;12.80;80.63;97299.13;68405;1279;1015830;-69
2024/02/24 04:16:45;;;;;;;;;;;;;;;12.84;80.43;97299.73;68434;1279;1016023;-69
2024/02/24 04:19:48;;;;;;;;;;;;;;;12.89;79.89;97301.60;68418;1279;1015378;-69
2024/02/24 04:22:50;;;;;;;;;;;;;;;12.86;79.96;97302.41;68414;1279;1015782;-69
2024/02/24 04:25:53;;;;;;;;;;;;;;;12.88;79.78;97305.89;68419;1279;1016208;-68
2024/02/24 04:28:55;;;;;;;;;;;;;;;12.90;79.51;97311.71;68421;1279;1016085;-69
2024/02/24 04:31:58;;;;;;;;;;;;;;;12.96;79.35;97313.21;68412;1279;1015796;-69
2024/02/24 04:35:00;;;;;;;;;;;;;;;13.12;78.31;97312.24;68410;1279;1015424;-69
2024/02/24 04:38:06;;;;;;;;;;;;;;;13.04;77.95;97314.02;68424;1279;1015611;-69
2024/02/24 04:41:08;;;;;;;;;;;;;;;13.07;77.71;97313.08;68432;1279;1015796;-69
2024/02/24 04:44:11;;;;;;;;;;;;;;;13.14;77.20;97319.55;68418;1279;1015619;-69
2024/02/24 04:47:14;;;;;;;;;;;;;;;13.19;76.85;97320.59;68414;1279;1016123;-69
2024/02/24 04:50:16;;;;;;;;;;;;;;;13.16;76.77;97314.83;68408;1279;1016609;-68
2024/02/24 04:53:19;;;;;;;;;;;;;;;13.17;76.37;97311.39;68397;1279;1015880;-64
2024/02/24 04:56:21;;;;;;;;;;;;;;;13.22;76.24;97318.52;68427;1279;1015818;-69
2024/02/24 04:59:24;;;;;;;;;;;;;;;13.22;76.20;97321.85;68434;1279;1015713;-69
2024/02/24 05:02:26;;;;;;;;;;;;;;;13.27;75.87;97326.62;68398;1279;1015396;-67
2024/02/24 05:05:29;;;;;;;;;;;;;;;13.25;75.88;97325.00;68409;1279;1016231;-68
2024/02/24 05:08:33;;;;;;;;;;;;;;;13.18;76.36;97321.83;68411;1279;1015709;-68
2024/02/24 05:11:35;;;;;;;;;;;;;;;13.15;76.44;97312.64;68404;1279;1016462;-66
2024/02/24 05:14:38;;;;;;;;;;;;;;;13.14;76.27;97318.36;68418;1279;1015101;-69
2024/02/24 05:17:41;;;;;;;;;;;;;;;13.13;76.15;97321.77;68416;1279;1015237;-69
2024/02/24 05:20:43;;;;;;;;;;;;;;;13.12;75.74;97335.08;68396;1279;1015244;-69
2024/02/24 05:23:46;;;;;;;;;;;;;;;13.16;75.50;97339.55;68415;1279;1015171;-69
2024/02/24 05:26:49;;;;;;;;;;;;;;;13.25;75.27;97341.52;68397;1279;1015320;-68
2024/02/24 05:29:52;;;;;;;;;;;;;;;13.22;74.73;97353.77;68411;1279;1016494;-69
2024/02/24 05:32:55;;;;;;;;;;;;;;;13.20;74.40;97347.45;68402;1279;1016098;-69
2024/02/24 05:35:57;;;;;;;;;;;;;;;13.26;73.80;97358.48;68403;1279;1015814;-69
2024/02/24 05:39:00;;;;;;;;;;;;;;;13.33;73.17;97364.36;68407;1279;1015542;-68
2024/02/24 05:42:02;;;;;;;;;;;;;;;13.31;72.88;97359.92;68430;1279;1015401;-69
2024/02/24 05:45:05;;;;;;;;;;;;;;;13.34;73.23;97366.65;68398;1279;1015729;-66
2024/02/24 05:48:08;;;;;;;;;;;;;;;13.36;72.38;97372.44;68402;1279;1015716;-69
2024/02/24 05:51:10;;;;;;;;;;;;;;;13.48;72.09;97376.63;68421;1279;1015519;-69
2024/02/24 05:54:13;;;;;;;;;;;;;;;13.49;72.18;97381.46;68401;1279;1016265;-69
2024/02/24 05:57:15;;;;;;;;;;;;;;;13.51;71.94;97387.52;68400;1279;1015505;-69
2024/02/24 06:00:18;;;;;;;;;;;;;;;13.53;71.88;97392.83;68409;1279;1014417;-64
2024/02/24 06:03:20;;;;;;;;;;;;;;;13.59;71.50;97389.45;68371;1279;1014892;-69
2024/02/24 06:06:24;;;;;;;;;;;;;;;13.67;71.16;97392.36;68417;1279;1014991;-68
2024/02/24 06:09:27;;;;;;;;;;;;;;;13.66;71.18;97401.71;68398;1279;1015725;-62
2024/02/24 06:12:29;;;;;;;;;;;;;;;13.70;70.84;97400.33;68403;1279;1015873;-68
2024/02/24 06:15:32;;;;;;;;;;;;;;;13.74;70.62;97407.10;68433;1279;1016326;-69
2024/02/24 06:18:34;;;;;;;;;;;;;;;13.85;70.21;97416.80;68395;1279;1016281;-69
2024/02/24 06:21:37;;;;;;;;;;;;;;;14.03;69.36;97414.47;68404;1279;1015591;-69
2024/02/24 06:24:40;;;;;;;;;;;;;;;14.14;68.38;97408.58;68410;1279;1015319;-69
2024/02/24 06:27:43;;;;;;;;;;;;;;;13.93;68.82;97403.01;68416;1279;1015345;-68
2024/02/24 06:30:46;;;;;;;;;;;;;;;13.94;69.29;97391.36;68398;1279;1014680;-67
2024/02/24 06:33:48;;;;;;;;;;;;;;;13.96;69.10;97394.41;68404;1279;1016138;-69
2024/02/24 06:36:51;;;;;;;;;;;;;;;14.04;68.77;97405.10;68394;1279;1015434;-69
2024/02/24 06:39:54;;;;;;;;;;;;;;;13.97;68.79;97406.99;68406;1279;1015665;-68
2024/02/24 06:42:56;;;;;;;;;;;;;;;14.01;69.37;97412.11;68405;1279;1014854;-69
2024/02/24 06:45:59;;;;;;;;;;;;;;;14.12;69.23;97418.19;68401;1279;1015349;-69
2024/02/24 06:49:02;;;;;;;;;;;;;;;14.20;68.21;97422.88;68394;1279;1015634;-69
2024/02/24 06:52:05;;;;;;;;;;;;;;;14.18;69.06;97429.90;68417;1279;1016301;-69
2024/02/24 06:55:08;;;;;;;;;;;;;;;14.25;68.51;97447.06;68385;1279;1015877;-69
2024/02/24 06:58:11;;;;;;;;;;;;;;;14.40;67.89;97450.48;68404;1279;1015286;-69
2024/02/24 07:01:13;;;;;;;;;;;;;;;14.45;67.70;97461.23;68424;1279;1016222;-69
2024/02/24 07:04:16;;;;;;;;;;;;;;;14.56;66.81;97465.91;68406;1279;1016123;-69
2024/02/24 07:07:18;;;;;;;;;;;;;;;14.66;66.58;97474.57;68414;1279;1015290;-69
2024/02/24 07:10:21;;;;;;;;;;;;;;;14.55;65.82;97474.36;68396;1280;1014931;-69
2024/02/24 07:13:23;;;;;;;;;;;;;;;14.44;66.53;97476.44;68409;1279;1015379;-69
2024/02/24 07:16:26;;;;;;;;;;;;;;;14.45;66.41;97478.88;68405;1279;1015286;-69
2024/02/24 07:19:29;;;;;;;;;;;;;;;14.41;66.43;97483.96;68388;1279;1016061;-69
2024/02/24 07:22:31;;;;;;;;;;;;;;;14.43;66.91;97482.33;68413;1279;1014294;-69
2024/02/24 07:25:34;;;;;;;;;;;;;;;14.49;66.83;97483.84;68404;1279;1015665;-69
2024/02/24 07:28:45;;;;;;;;;;;;;;;14.66;66.16;97472.96;68394;1279;1016106;-69
2024/02/24 07:31:49;;;;;;;;;;;;;;;14.70;65.89;97475.50;68367;1279;1015701;-69
2024/02/24 07:34:52;;;;;;;;;;;;;;;14.73;65.73;97482.65;68397;1279;1014320;-69
2024/02/24 07:37:55;;;;;;;;;;;;;;;14.77;65.58;97485.71;68413;1279;1015570;-68
2024/02/24 07:40:57;;;;;;;;;;;;;;;14.77;65.02;97487.85;68386;1279;1015623;-68
2024/02/24 07:44:00;;;;;;;;;;;;;;;14.79;64.94;97489.33;68394;1279;1015861;-69
2024/02/24 07:47:06;;;;;;;;;;;;;;;14.75;65.07;97496.29;68403;1279;1015899;-69
2024/02/24 07:50:09;;;;;;;;;;;;;;;14.76;64.40;97509.46;68403;1279;1015995;-68
2024/02/24 07:53:11;;;;;;;;;;;;;;;14.83;64.55;97512.09;68394;1279;1016206;-69
2024/02/24 07:56:14;;;;;;;;;;;;;;;14.85;64.72;97517.52;68396;1279;1015847;-69
2024/02/24 07:59:16;;;;;;;;;;;;;;;14.96;64.95;97516.38;68412;1279;1015779;-68
2024/02/24 08:02:19;;;;;;;;;;;;;;;15.15;63.11;97522.33;68394;1279;1016119;-69
2024/02/24 08:05:22;;;;;;;;;;;;;;;15.06;64.49;97524.54;66183;1279;1016000;-69
2024/02/24 08:08:25;;;;;;;;;;;;;;;15.09;64.24;97535.70;68406;1279;1015539;-69
2024/02/24 08:11:30;;;;;;;;;;;;;;;15.06;63.89;97552.17;68396;1279;1015433;-69
2024/02/24 08:14:33;;;;;;;;;;;;;;;14.78;63.09;97575.55;68384;1279;1016329;-69
2024/02/24 08:17:36;;;;;;;;;;;;;;;14.25;65.38;97602.23;68408;1279;1015862;-69
2024/02/24 08:20:38;;;;;;;;;;;;;;;13.83;67.16;97611.48;68393;1279;1015823;-69
2024/02/24 08:23:41;;;;;;;;;;;;;;;13.62;68.67;97632.07;68401;1279;1016037;-69
2024/02/24 08:26:52;;;;;;;;;;;;;;;13.39;69.50;97625.23;68384;1279;1016402;-69
2024/02/24 08:29:54;;;;;;;;;;;;;;;13.37;69.15;97621.30;68391;1279;1015849;-69
2024/02/24 08:32:56;;;;;;;;;;;;;;;13.47;69.15;97636.60;68387;1279;1015532;-69
2024/02/24 08:36:00;;;;;;;;;;;;;;;13.36;69.50;97652.66;68398;1279;1015695;-68
2024/02/24 08:39:02;;;;;;;;;;;;;;;13.19;70.49;97658.39;68389;1279;1016099;-69
2024/02/24 08:42:05;;;;;;;;;;;;;;;13.17;70.45;97658.73;68387;1279;1015675;-69
2024/02/24 08:45:07;;;;;;;;;;;;;;;13.03;72.18;97674.07;68399;1279;1015675;-69
2024/02/24 08:48:12;;;;;;;;;;;;;;;12.98;72.50;97678.48;68404;1279;1016311;-69
2024/02/24 08:51:14;;;;;;;;;;;;;;;12.88;72.85;97688.88;68397;1279;1016075;-68
2024/02/24 08:54:20;;;;;;;;;;;;;;;12.85;72.93;97700.89;68391;1279;1015576;-69
2024/02/24 08:57:23;;;;;;;;;;;;;;;12.84;73.45;97704.63;68397;1279;1015628;-69
2024/02/24 09:00:25;;;;;;;;;;;;;;;12.90;73.99;97720.42;68393;1279;1015344;-69
2024/02/24 09:03:28;;;;;;;;;;;;;;;12.92;74.53;97724.84;68396;1279;1015561;-69
2024/02/24 09:06:35;;;;;;;;;;;;;;;13.04;75.28;97720.63;68397;1279;1015540;-68
2024/02/24 09:09:38;;;;;;;;;;;;;;;13.40;75.48;97717.95;68393;1279;1017099;-69
2024/02/24 09:12:40;;;;;;;;;;;;;;;13.87;74.65;97709.48;68393;1279;1015487;-69
2024/02/24 09:15:43;;;;;;;;;;;;;;;14.35;75.12;97718.48;68388;1279;1014354;-68
2024/02/24 09:18:45;;;;;;;;;;;;;;;14.87;72.52;97727.77;68389;1279;1015287;-69
2024/02/24 09:21:48;;;;;;;;;;;;;;;15.10;69.89;97733.02;68398;1279;1015587;-69
2024/02/24 09:24:50;;;;;;;;;;;;;;;15.05;69.26;97728.14;68397;1279;1015410;-68
2024/02/24 09:27:53;;;;;;;;;;;;;;;15.02;69.13;97739.42;68404;1279;1015231;-69
2024/02/24 09:30:55;;;;;;;;;;;;;;;15.20;68.67;97753.96;68399;1279;1015292;-69
2024/02/24 09:33:58;;;;;;;;;;;;;;;15.25;67.38;97751.23;68387;1279;1015626;-69
2024/02/24 09:37:01;;;;;;;;;;;;;;;15.16;67.31;97751.30;68412;1279;1015178;-69
2024/02/24 09:40:03;;;;;;;;;;;;;;;15.03;67.15;97755.44;68393;1279;1015433;-68
2024/02/24 09:43:08;;;;;;;;;;;;;;;14.69;67.38;97763.63;68412;1279;1015392;-69
2024/02/24 09:46:10;;;;;;;;;;;;;;;14.40;68.40;97773.73;68403;1279;1014657;-69
2024/02/24 09:49:13;;;;;;;;;;;;;;;14.28;69.85;97773.58;68388;1279;1016299;-69
2024/02/24 09:52:16;;;;;;;;;;;;;;;14.40;70.23;97770.36;68408;1279;1015283;-69
2024/02/24 09:55:18;;;;;;;;;;;;;;;14.84;70.46;97774.00;68403;1279;1016215;-69
2024/02/24 09:58:21;;;;;;;;;;;;;;;15.50;69.40;97775.24;68400;1279;1015578;-69
2024/02/24 10:01:23;;;;;;;;;;;;;;;16.01;67.83;97780.95;68382;1279;1015791;-68
2024/02/24 10:04:26;;;;;;;;;;;;;;;16.56;64.55;97792.96;68399;1279;1016230;-69
2024/02/24 10:07:29;;;;;;;;;;;;;;;15.79;61.48;97815.03;68409;1279;1015353;-68
2024/02/24 10:10:32;;;;;;;;;;;;;;;14.78;64.34;97824.92;68398;1279;1015594;-66
2024/02/24 10:13:35;;;;;;;;;;;;;;;14.31;66.08;97823.44;68402;1279;1015752;-69
2024/02/24 10:16:37;;;;;;;;;;;;;;;14.25;66.52;97844.15;68394;1279;1015531;-69
2024/02/24 10:19:40;;;;;;;;;;;;;;;14.49;68.00;97852.94;68398;1279;1016551;-69
2024/02/24 10:22:43;;;;;;;;;;;;;;;14.67;65.09;97856.16;68413;1279;1015762;-69
2024/02/24 10:25:46;;;;;;;;;;;;;;;14.60;60.05;97862.79;68405;1279;1015776;-69
2024/02/24 10:28:49;;;;;;;;;;;;;;;14.66;59.71;97863.89;68408;1279;1015716;-69
2024/02/24 10:31:51;;;;;;;;;;;;;;;14.93;58.76;97866.23;68400;1279;1016130;-69
2024/02/24 10:34:54;;;;;;;;;;;;;;;14.67;59.04;97876.60;68405;1279;1014405;-69
2024/02/24 10:37:56;;;;;;;;;;;;;;;14.51;60.29;97871.91;68405;1279;1015673;-70
2024/02/24 10:40:59;;;;;;;;;;;;;;;14.39;61.22;97887.23;68399;1279;1015981;-69
2024/02/24 10:44:02;;;;;;;;;;;;;;;14.07;59.93;97891.52;68401;1279;1015434;-66
2024/02/24 10:47:05;;;;;;;;;;;;;;;13.97;60.65;97890.85;68413;1279;1015417;-69
2024/02/24 10:50:11;;;;;;;;;;;;;;;13.88;60.37;97896.02;68399;1279;1015234;-70
2024/02/24 10:53:13;;;;;;;;;;;;;;;13.89;61.04;97904.01;68393;1279;1015873;-69
2024/02/24 10:56:16;;;;;;;;;;;;;;;14.15;59.80;97902.02;68420;1279;1016102;-68
2024/02/24 10:59:18;;;;;;;;;;;;;;;14.33;60.21;97896.60;68393;1279;1015986;-69
2024/02/24 11:02:21;;;;;;;;;;;;;;;14.55;59.99;97887.22;68412;1279;1015651;-69
2024/02/24 11:05:23;;;;;;;;;;;;;;;14.84;56.67;97892.61;68406;1279;1015185;-69
2024/02/24 11:08:26;;;;;;;;;;;;;;;14.81;56.97;97894.69;68412;1279;1016090;-69
2024/02/24 11:11:29;;;;;;;;;;;;;;;14.96;57.36;97890.61;68392;1279;1015616;-69
2024/02/24 11:14:31;;;;;;;;;;;;;;;15.26;55.87;97894.20;68422;1279;1015968;-69
2024/02/24 11:17:34;;;;;;;;;;;;;;;15.13;56.22;97892.88;68403;1279;1014509;-69
2024/02/24 11:20:37;;;;;;;;;;;;;;;15.60;56.56;97897.94;68402;1279;1015469;-69
2024/02/24 11:23:44;;;;;;;;;;;;;;;15.93;54.06;97914.42;68405;1279;1015416;-69
2024/02/24 11:26:48;;;;;;;;;;;;;;;15.84;51.13;97933.17;68400;1279;1015262;-69
2024/02/24 11:29:50;;;;;;;;;;;;;;;15.62;54.23;97936.02;68412;1279;1015544;-68
2024/02/24 11:32:53;;;;;;;;;;;;;;;15.84;52.75;97943.45;68385;1279;1015446;-68
2024/02/24 11:35:55;;;;;;;;;;;;;;;15.30;52.48;97951.02;68408;1279;1016119;-69
2024/02/24 11:38:58;;;;;;;;;;;;;;;15.56;53.98;97946.79;68414;1279;1015292;-69
2024/02/24 11:42:00;;;;;;;;;;;;;;;15.82;54.10;97955.46;68414;1279;1015751;-69
2024/02/24 11:45:03;;;;;;;;;;;;;;;15.48;50.32;97963.55;68420;1279;1014918;-69
2024/02/24 11:48:06;;;;;;;;;;;;;;;15.13;50.48;97966.52;68421;1279;1016435;-69
2024/02/24 11:51:09;;;;;;;;;;;;;;;14.82;51.18;97972.73;68413;1279;1015307;-69
2024/02/24 11:54:11;;;;;;;;;;;;;;;14.51;52.76;97979.52;68425;1279;1014792;-69
2024/02/24 11:57:14;;;;;;;;;;;;;;;14.56;54.79;97981.23;68392;1279;1015853;-69
2024/02/24 12:00:16;;;;;;;;;;;;;;;14.67;54.08;97984.48;68413;1279;1016628;-69
2024/02/24 12:03:19;;;;;;;;;;;;;;;14.55;52.36;97993.29;68429;1279;1015661;-69
2024/02/24 12:06:23;;;;;;;;;;;;;;;14.70;53.88;98000.95;68408;1279;1015568;-69
2024/02/24 12:09:26;;;;;;;;;;;;;;;14.68;52.88;97997.00;68411;1279;1016065;-69
2024/02/24 12:12:28;;;;;;;;;;;;;;;14.96;53.17;97995.34;68406;1279;1014818;-69
2024/02/24 12:15:31;;;;;;;;;;;;;;;15.10;51.21;98003.05;68403;1279;1016112;-69
2024/02/24 12:18:33;;;;;;;;;;;;;;;15.14;51.76;98003.95;68398;1279;1015824;-69
2024/02/24 12:21:36;;;;;;;;;;;;;;;15.28;50.45;97998.88;68412;1279;1014834;-69
2024/02/24 12:24:39;;;;;;;;;;;;;;;15.25;49.83;98003.71;68406;1279;1015518;-69
2024/02/24 12:27:41;;;;;;;;;;;;;;;15.47;50.80;98003.65;68408;1279;1015445;-69
2024/02/24 12:30:44;;;;;;;;;;;;;;;15.39;49.99;98010.77;68408;1279;1016368;-69
2024/02/24 12:33:47;;;;;;;;;;;;;;;15.38;50.20;98020.92;68388;1279;1016042;-69
2024/02/24 12:36:49;;;;;;;;;;;;;;;15.36;50.30;98023.52;68416;1279;1015303;-69
2024/02/24 12:39:52;;;;;;;;;;;;;;;15.27;50.45;98021.40;68391;1279;1015027;-69
2024/02/24 12:42:55;;;;;;;;;;;;;;;14.88;50.46;98032.33;68432;1279;1015524;-65
2024/02/24 12:45:57;;;;;;;;;;;;;;;14.71;52.94;98029.33;68437;1279;1015550;-70
2024/02/24 12:49:00;;;;;;;;;;;;;;;14.68;52.39;98033.09;68414;1279;1016030;-70
2024/02/24 12:52:02;;;;;;;;;;;;;;;14.87;51.67;98035.41;68431;1279;1016080;-69
2024/02/24 12:55:05;;;;;;;;;;;;;;;14.97;51.51;98039.83;68409;1279;1015644;-69
2024/02/24 12:58:07;;;;;;;;;;;;;;;15.27;50.53;98038.48;68414;1279;1015945;-69
2024/02/24 13:01:10;;;;;;;;;;;;;;;15.57;51.16;98042.37;68414;1279;1015051;-70
2024/02/24 13:04:13;;;;;;;;;;;;;;;15.61;49.63;98049.90;68416;1279;1016021;-69
2024/02/24 13:07:15;;;;;;;;;;;;;;;15.35;49.15;98053.61;68442;1279;1015655;-70
2024/02/24 13:10:18;;;;;;;;;;;;;;;15.45;49.56;98056.05;68441;1279;1016193;-69
2024/02/24 13:13:21;;;;;;;;;;;;;;;15.64;49.56;98058.88;68408;1279;1015693;-70
2024/02/24 13:16:24;;;;;;;;;;;;;;;15.57;49.26;98061.89;68416;1279;1015347;-66
2024/02/24 13:19:27;;;;;;;;;;;;;;;15.57;48.31;98073.58;68418;1279;1016081;-69
2024/02/24 13:22:29;;;;;;;;;;;;;;;15.63;49.41;98075.84;68434;1279;1015824;-69
2024/02/24 13:25:32;;;;;;;;;;;;;;;15.45;48.44;98079.77;68433;1279;1014411;-69
2024/02/24 13:28:34;;;;;;;;;;;;;;;15.38;49.20;98092.77;68389;1279;1015357;-70
2024/02/24 13:31:37;;;;;;;;;;;;;;;15.26;50.39;98093.21;68405;1279;1016178;-69
2024/02/24 13:34:39;;;;;;;;;;;;;;;15.13;50.22;98103.14;68444;1279;1014808;-70
2024/02/24 13:37:42;;;;;;;;;;;;;;;15.02;49.95;98107.11;68443;1279;1016099;-70
2024/02/24 13:40:44;;;;;;;;;;;;;;;15.27;50.07;98105.08;68424;1279;1015368;-70
2024/02/24 13:43:47;;;;;;;;;;;;;;;15.32;50.16;98105.63;68417;1279;1015322;-69
2024/02/24 13:46:49;;;;;;;;;;;;;;;15.34;49.57;98112.99;68428;1279;1015887;-70
2024/02/24 13:49:52;;;;;;;;;;;;;;;15.44;49.19;98117.23;68427;1279;1015616;-69
2024/02/24 13:52:55;;;;;;;;;;;;;;;15.27;48.59;98121.20;68431;1279;1016307;-69
2024/02/24 13:55:58;;;;;;;;;;;;;;;15.25;48.90;98124.70;68444;1279;1015780;-70
2024/02/24 13:59:01;;;;;;;;;;;;;;;15.35;49.34;98131.74;68436;1279;1016000;-69
2024/02/24 14:02:06;;;;;;;;;;;;;;;15.51;49.36;98129.05;68429;1279;1015422;-69
2024/02/24 14:05:09;;;;;;;;;;;;;;;15.79;48.68;98138.16;68413;1279;1016209;-70
2024/02/24 14:08:12;;;;;;;;;;;;;;;15.73;49.57;98138.87;68422;1279;1015739;-69
2024/02/24 14:11:14;;;;;;;;;;;;;;;15.61;49.36;98146.85;68429;1279;1015547;-69
2024/02/24 14:14:17;;;;;;;;;;;;;;;15.35;49.66;98149.42;68422;1279;1016107;-70
2024/02/24 14:17:21;;;;;;;;;;;;;;;15.65;49.43;98158.48;68401;1279;1015258;-69
2024/02/24 14:20:25;;;;;;;;;;;;;;;15.59;49.45;98160.94;68433;1279;1015534;-69
2024/02/24 14:23:28;;;;;;;;;;;;;;;15.45;49.43;98156.89;68420;1279;1016273;-64
2024/02/24 14:26:31;;;;;;;;;;;;;;;15.46;49.26;98157.73;68426;1279;1016097;-69
2024/02/24 14:29:33;;;;;;;;;;;;;;;15.47;49.75;98160.25;68426;1279;1015405;-70
2024/02/24 14:32:37;;;;;;;;;;;;;;;15.68;49.72;98165.40;68420;1279;1016089;-65
2024/02/24 14:35:41;;;;;;;;;;;;;;;15.93;49.22;98164.94;68437;1279;1015494;-70
2024/02/24 14:38:43;;;;;;;;;;;;;;;16.01;48.56;98166.09;68439;1279;1015987;-70
2024/02/24 14:41:46;;;;;;;;;;;;;;;16.04;49.26;98170.59;68440;1279;1016105;-70
2024/02/24 14:44:49;;;;;;;;;;;;;;;16.05;49.02;98178.02;68427;1279;1015486;-68
2024/02/24 14:47:52;;;;;;;;;;;;;;;15.84;48.25;98182.65;68436;1279;1016050;-70
2024/02/24 14:50:54;;;;;;;;;;;;;;;15.73;48.55;98186.32;68419;1279;1015786;-70
2024/02/24 14:53:57;;;;;;;;;;;;;;;15.88;48.80;98183.52;68421;1280;1016009;-69
2024/02/24 14:56:59;;;;;;;;;;;;;;;16.19;48.17;98185.92;68431;1279;1015859;-69
2024/02/24 15:00:05;;;;;;;;;;;;;;;16.22;48.46;98184.27;68424;1279;1015564;-70
2024/02/24 15:03:08;;;;;;;;;;;;;;;16.25;48.42;98192.20;68418;1279;1015617;-70
2024/02/24 15:06:12;;;;;;;;;;;;;;;16.18;48.46;98199.80;68445;1279;1016111;-70
2024/02/24 15:09:14;;;;;;;;;;;;;;;16.09;49.05;98206.59;68443;1279;1015333;-70
2024/02/24 15:12:17;;;;;;;;;;;;;;;16.10;49.25;98216.05;68444;1279;1015857;-69
2024/02/24 15:15:19;;;;;;;;;;;;;;;16.07;48.90;98221.10;68439;1279;1015314;-70
2024/02/24 15:18:22;;;;;;;;;;;;;;;16.04;48.65;98224.88;68433;1279;1015423;-70
2024/02/24 15:21:25;;;;;;;;;;;;;;;15.98;48.66;98224.02;68425;1279;1015610;-70
2024/02/24 15:24:28;;;;;;;;;;;;;;;15.86;49.09;98230.77;68437;1279;1015863;-69
2024/02/24 15:27:31;;;;;;;;;;;;;;;15.77;49.41;98235.14;68429;1279;1016169;-70